Time;durP1;ratioP1;P1;durP2;ratioP2;P2;SDS_P1;SDS_P2;PMS_P1;PMS_P2;Temp;Humidity;BMP_temperature;BMP_pressure;BME280_temperature;BME280_humidity;BME280_pressure;Samples;Min_cycle;Max_cycle;Signal;HPM_P1;HPM_P2
2022/03/17 00:00:55;;;;;;;30.27;22.63;;;;;;;;;;5094414;28;20086;-65
2022/03/17 00:03:21;;;;;;;34.50;24.83;;;;;;;;;;5094211;28;20484;-64
2022/03/17 00:05:47;;;;;;;31.70;24.60;;;;;;;;;;5094234;28;20111;-64
2022/03/17 00:08:17;;;;;;;34.35;26.15;;;307.80;2304.00;;;;;;5094591;28;20040;-65
2022/03/17 00:10:43;;;;;;;35.22;27.80;;;307.70;2304.00;;;;;;5094323;28;20048;-65
2022/03/17 00:13:09;;;;;;;37.92;26.77;;;;;;;;;;5094129;28;20077;-65
2022/03/17 00:15:35;;;;;;;37.10;26.25;;;;;;;;;;5094344;28;20358;-66
2022/03/17 00:18:01;;;;;;;33.88;26.83;;;;;;;;;;5093916;28;20099;-65
2022/03/17 00:20:27;;;;;;;35.95;27.60;;;;;;;;;;5094362;28;20024;-67
2022/03/17 00:22:53;;;;;;;35.17;27.77;;;;;;;;;;5093912;28;20052;-64
2022/03/17 00:25:19;;;;;;;37.40;26.95;;;;;;;;;;5094027;28;20069;-65
2022/03/17 00:27:45;;;;;;;34.35;26.95;;;;;;;;;;5093851;28;20032;-65
2022/03/17 00:30:12;;;;;;;41.38;26.75;;;;;;;;;;5093748;28;20483;-65
2022/03/17 00:32:38;;;;;;;34.50;26.27;;;;;;;;;;5093763;28;20020;-66
2022/03/17 00:37:53;;;;;;;37.70;28.58;;;;;;;;;;5093646;28;20528;-64
2022/03/17 00:40:19;;;;;;;36.25;28.30;;;;;;;;;;5093976;28;20016;-65
2022/03/17 00:42:45;;;;;;;37.40;29.52;;;;;;;;;;5093945;28;20051;-67
2022/03/17 00:45:12;;;;;;;35.38;27.52;;;;;;;;;;5093707;28;20024;-65
2022/03/17 00:47:39;;;;;;;36.00;28.63;;;;;;;;;;5093688;28;20060;-65
2022/03/17 00:50:05;;;;;;;34.78;28.15;;;;;;;;;;5092283;28;20031;-63
2022/03/17 00:52:31;;;;;;;43.40;32.13;;;;;;;;;;5093904;28;20466;-66
2022/03/17 00:54:58;;;;;;;32.95;26.63;;;;;;;;;;5093472;28;20050;-66
2022/03/17 00:57:24;;;;;;;33.95;27.77;;;;;;;;;;5092845;28;20082;-66
2022/03/17 00:59:50;;;;;;;37.80;29.20;;;;;;;;;;5093314;28;20024;-66
2022/03/17 01:02:16;;;;;;;39.22;29.75;;;307.90;2304.00;;;;;;5093175;28;20100;-65
2022/03/17 01:04:42;;;;;;;39.08;30.02;;;307.90;2304.00;;;;;;5093275;28;20024;-65
2022/03/17 01:07:08;;;;;;;36.17;28.15;;;307.80;2304.00;;;;;;5093527;28;20051;-66
2022/03/17 01:09:34;;;;;;;39.65;30.25;;;307.70;2304.00;;;;;;5093408;28;20041;-65
2022/03/17 01:12:00;;;;;;;46.50;34.40;;;307.50;2304.00;;;;;;5092992;28;20020;-66
2022/03/17 01:14:26;;;;;;;44.22;32.50;;;307.60;2304.00;;;;;;5093418;28;20386;-66
2022/03/17 01:16:52;;;;;;;49.50;39.03;;;307.80;2304.00;;;;;;5093062;28;20028;-65
2022/03/17 01:19:21;;;;;;;55.95;44.20;;;307.70;2304.00;;;;;;5093148;28;20021;-65
2022/03/17 01:21:48;;;;;;;42.15;32.60;;;307.70;2304.00;;;;;;5093099;28;20039;-65
2022/03/17 01:24:15;;;;;;;49.50;40.35;;;307.80;2304.00;;;;;;5093571;28;20024;-66
2022/03/17 01:26:41;;;;;;;43.55;36.28;;;307.90;2304.00;;;;;;5093085;28;20131;-64
2022/03/17 01:29:07;;;;;;;50.00;40.05;;;308.00;2304.00;;;;;;5092970;28;20028;-66
2022/03/17 01:31:33;;;;;;;42.20;34.60;;;;;;;;;;5093068;28;20025;-65
2022/03/17 01:33:59;;;;;;;50.42;40.63;;;;;;;;;;5091797;28;20055;-65
2022/03/17 01:36:26;;;;;;;55.95;42.28;;;;;;;;;;5092778;28;20044;-65
2022/03/17 01:38:52;;;;;;;74.90;33.75;;;307.80;2304.00;;;;;;5092945;28;20060;-66
2022/03/17 01:41:18;;;;;;;48.63;36.08;;;307.90;2304.00;;;;;;5092979;28;20056;-64
2022/03/17 01:43:43;;;;;;;36.88;26.98;;;307.80;2304.00;;;;;;5093273;28;20028;-66
2022/03/17 01:46:11;;;;;;;40.92;32.40;;;308.00;2304.00;;;;;;5093005;28;20096;-66
2022/03/17 01:48:38;;;;;;;46.42;37.65;;;308.10;2304.00;;;;;;5092881;28;20035;-65
2022/03/17 01:51:04;;;;;;;38.58;29.98;;;307.90;2304.00;;;;;;5092959;28;20028;-65
2022/03/17 01:53:30;;;;;;;39.92;31.55;;;;;;;;;;5092812;28;20077;-65
2022/03/17 01:55:58;;;;;;;38.35;29.27;;;;;;;;;;5093179;28;20024;-65
2022/03/17 01:58:24;;;;;;;47.42;40.85;;;;;;;;;;5092624;28;20031;-67
2022/03/17 02:00:50;;;;;;;51.15;45.75;;;;;;;;;;5092898;28;20032;-65
2022/03/17 02:03:17;;;;;;;69.60;57.13;;;;;;;;;;5092787;28;20055;-66
2022/03/17 02:05:45;;;;;;;88.40;74.88;;;;;;;;;;5092846;28;20023;-66
2022/03/17 02:08:15;;;;;;;146.20;129.73;;;307.60;2304.00;;;;;;5092734;28;20127;-65
2022/03/17 02:13:26;;;;;;;56.85;38.80;;;;;;;;;;5097052;28;20047;-65
2022/03/17 02:15:54;;;;;;;68.72;61.67;;;307.80;2304.00;;;;;;5096423;28;20055;-65
2022/03/17 02:18:21;;;;;;;38.05;28.98;;;307.80;2304.00;;;;;;5096528;28;20103;-67
2022/03/17 02:20:47;;;;;;;47.05;38.58;;;;;;;;;;5094612;28;20036;-65
2022/03/17 02:25:59;;;;;;;51.75;41.65;;;;;;;;;;5096276;28;20058;-66
2022/03/17 02:28:26;;;;;;;50.03;39.97;;;;;;;;;;5096446;28;20065;-68
2022/03/17 02:30:52;;;;;;;57.40;49.65;;;;;;;;;;5096221;28;20078;-66
2022/03/17 02:33:19;;;;;;;44.97;32.28;;;307.60;2304.00;;;;;;5096127;28;20034;-67
2022/03/17 02:35:47;;;;;;;46.80;33.92;;;307.60;2304.00;;;;;;5096070;28;20433;-67
2022/03/17 02:38:13;;;;;;;41.65;30.77;;;307.70;2304.00;;;;;;5095736;28;20059;-65
2022/03/17 02:40:42;;;;;;;40.83;28.75;;;307.70;2304.00;;;;;;5096049;28;20031;-65
2022/03/17 02:43:09;;;;;;;39.25;29.35;;;;;;;;;;5096046;28;20027;-65
2022/03/17 02:45:36;;;;;;;38.30;28.40;;;;;;;;;;5094843;28;20028;-64
2022/03/17 02:48:02;;;;;;;36.65;27.13;;;;;;;;;;5095733;28;20039;-64
2022/03/17 02:50:28;;;;;;;38.72;27.55;;;;;;;;;;5095838;28;20028;-64
2022/03/17 02:52:54;;;;;;;33.63;26.45;;;;;;;;;;5096089;28;20055;-64
2022/03/17 02:55:21;;;;;;;35.00;26.75;;;;;;;;;;5095627;28;20027;-64
2022/03/17 02:57:46;;;;;;;34.42;26.02;;;307.40;2304.00;;;;;;5094408;28;20075;-66
2022/03/17 03:00:13;;;;;;;37.67;27.50;;;307.60;2304.00;;;;;;5095630;28;20447;-64
2022/03/17 03:02:40;;;;;;;36.35;26.27;;;307.60;2304.00;;;;;;5095573;28;20020;-65
2022/03/17 03:05:06;;;;;;;34.65;25.77;;;307.50;2304.00;;;;;;5095636;28;20099;-65
2022/03/17 03:07:34;;;;;;;29.83;25.33;;;307.50;2304.00;;;;;;5095767;28;20158;-64
2022/03/17 03:10:01;;;;;;;34.50;25.85;;;307.50;2304.00;;;;;;5095854;28;20370;-66
2022/03/17 03:12:26;;;;;;;33.03;24.67;;;307.70;2304.00;;;;;;5095411;28;20080;-64
2022/03/17 03:14:52;;;;;;;31.33;24.13;;;307.60;2304.00;;;;;;5095375;28;20095;-65
2022/03/17 03:17:20;;;;;;;32.53;25.10;;;307.50;2304.00;;;;;;5095493;28;20027;-65
2022/03/17 03:19:46;;;;;;;35.38;27.52;;;;;;;;;;5094887;28;20085;-65
2022/03/17 03:22:13;;;;;;;35.28;25.20;;;;;;;;;;5095199;28;20363;-64
2022/03/17 03:24:39;;;;;;;54.47;27.75;;;;;;;;;;5095491;28;20425;-65
2022/03/17 03:27:05;;;;;;;38.72;26.38;;;;;;;;;;5094917;28;20062;-66
2022/03/17 03:29:31;;;;;;;103.35;34.28;;;;;;;;;;5095073;28;20466;-64
2022/03/17 03:31:58;;;;;;;48.15;30.10;;;;;;;;;;5094913;28;20122;-64
2022/03/17 03:34:25;;;;;;;46.10;31.75;;;;;;;;;;5094951;28;20098;-67
2022/03/17 03:39:38;;;;;;;43.58;30.67;;;;;;;;;;5095207;28;20081;-65
2022/03/17 03:42:04;;;;;;;42.53;30.65;;;;;;;;;;5093185;28;20478;-64
2022/03/17 03:44:31;;;;;;;87.20;50.53;;;;;;;;;;5094758;28;20513;-65
2022/03/17 03:46:57;;;;;;;68.30;42.92;;;;;;;;;;5094704;28;20032;-65
2022/03/17 03:49:23;;;;;;;44.47;31.90;;;;;;;;;;5094646;28;20094;-64
2022/03/17 03:51:49;;;;;;;44.22;29.27;;;;;;;;;;5094358;28;20024;-64
2022/03/17 03:54:16;;;;;;;40.38;27.60;;;;;;;;;;5094712;28;20028;-65
2022/03/17 03:56:48;;;;;;;37.90;28.35;;;;;;;;;;5094643;28;20020;-65
2022/03/17 03:59:21;;;;;;;45.53;28.95;;;;;;;;;;5094781;28;20072;-64
2022/03/17 04:01:49;;;;;;;50.53;30.23;;;;;;;;;;5094786;28;20031;-64
2022/03/17 04:04:17;;;;;;;43.22;30.45;;;;;;;;;;5094279;28;20020;-66
2022/03/17 04:06:46;;;;;;;40.15;29.30;;;;;;;;;;5094483;28;20042;-64
2022/03/17 04:09:12;;;;;;;45.00;31.45;;;;;;;;;;5094458;28;20097;-64
2022/03/17 04:11:39;;;;;;;47.25;32.97;;;;;;;;;;5094357;28;20440;-65
2022/03/17 04:14:06;;;;;;;64.05;35.83;;;;;;;;;;5094346;28;20378;-64
2022/03/17 04:16:32;;;;;;;51.88;33.42;;;;;;;;;;5094285;28;20020;-65
2022/03/17 04:18:58;;;;;;;45.80;34.67;;;;;;;;;;5093847;28;20466;-65
2022/03/17 04:21:24;;;;;;;66.93;45.03;;;;;;;;;;5094170;28;20073;-65
2022/03/17 04:23:50;;;;;;;90.05;63.92;;;;;;;;;;5094233;28;20032;-66
2022/03/17 04:26:16;;;;;;;72.22;53.70;;;;;;;;;;5094156;28;20027;-66
2022/03/17 04:28:43;;;;;;;68.15;46.08;;;;;;;;;;5093916;28;20024;-66
2022/03/17 04:31:09;;;;;;;64.07;43.30;;;307.40;2304.00;;;;;;5093535;28;20020;-65
2022/03/17 04:33:35;;;;;;;55.10;39.78;;;307.40;2304.00;;;;;;5093329;28;20039;-65
2022/03/17 04:36:05;;;;;;;59.38;39.63;;;307.50;2304.00;;;;;;5093678;28;20103;-64
2022/03/17 04:38:32;;;;;;;53.95;37.47;;;307.60;2304.00;;;;;;5093627;28;20039;-65
2022/03/17 04:40:58;;;;;;;50.05;36.58;;;;;;;;;;5092329;28;20023;-64
2022/03/17 04:43:24;;;;;;;64.40;35.92;;;307.30;2304.00;;;;;;5093643;28;20478;-64
2022/03/17 04:45:50;;;;;;;50.70;35.53;;;307.40;2304.00;;;;;;5093600;28;20047;-65
2022/03/17 04:48:16;;;;;;;50.63;35.47;;;;;;;;;;5093255;28;20024;-63
2022/03/17 04:50:42;;;;;;;47.53;33.03;;;;;;;;;;5093692;28;20019;-63
2022/03/17 04:53:27;;;;;;;43.13;31.05;;;;;;;;;;5093522;28;20028;-64
2022/03/17 04:55:53;;;;;;;42.53;31.02;;;;;;;;;;5093635;28;20016;-64
2022/03/17 04:58:19;;;;;;;47.60;31.92;;;;;;;;;;5093630;28;20073;-65
2022/03/17 05:00:46;;;;;;;53.00;32.35;;;;;;;;;;5093391;28;20048;-64
2022/03/17 05:03:12;;;;;;;46.63;30.73;;;;;;;;;;5093121;28;20382;-64
2022/03/17 05:05:38;;;;;;;53.95;34.67;;;307.40;2304.00;;;;;;5093236;28;20048;-65
2022/03/17 05:08:05;;;;;;;68.82;44.55;;;;;;;;;;5093143;28;20032;-65
2022/03/17 05:10:32;;;;;;;67.18;47.22;;;;;;;;;;5093220;28;20012;-65
2022/03/17 05:12:58;;;;;;;65.05;46.20;;;;;;;;;;5093322;28;20051;-65
2022/03/17 05:15:24;;;;;;;66.00;46.35;;;;;;;;;;5093323;28;20023;-65
2022/03/17 05:17:51;;;;;;;63.75;45.88;;;;;;;;;;5093117;28;20020;-65
2022/03/17 05:20:17;;;;;;;62.40;44.65;;;;;;;;;;5093390;28;20101;-65
2022/03/17 05:22:43;;;;;;;87.45;60.47;;;;;;;;;;5093309;28;20416;-65
2022/03/17 05:25:11;;;;;;;99.40;65.97;;;;;;;;;;5093288;28;20023;-64
2022/03/17 05:27:41;;;;;;;88.95;59.40;;;;;;;;;;5093036;28;20097;-65
2022/03/17 05:30:07;;;;;;;85.88;61.58;;;;;;;;;;5092988;28;20089;-65
2022/03/17 05:32:34;;;;;;;101.55;66.22;;;;;;;;;;5092797;28;20115;-64
2022/03/17 05:35:00;;;;;;;208.40;130.63;;;;;;;;;;5092854;28;20016;-65
2022/03/17 05:37:26;;;;;;;118.47;79.32;;;;;;;;;;5092737;28;20058;-66
2022/03/17 05:39:52;;;;;;;88.88;57.33;;;;;;;;;;5092875;28;20471;-65
2022/03/17 05:42:18;;;;;;;92.18;60.17;;;;;;;;;;5092771;28;20055;-64
2022/03/17 05:44:44;;;;;;;68.38;48.67;;;;;;;;;;5096851;28;20020;-64
2022/03/17 05:47:11;;;;;;;81.32;52.13;;;;;;;;;;5096863;28;20095;-64
2022/03/17 05:49:37;;;;;;;72.72;51.42;;;;;;;;;;5096972;28;20470;-64
2022/03/17 05:52:03;;;;;;;84.82;58.25;;;307.70;2304.00;;;;;;5097256;28;20016;-65
2022/03/17 05:54:29;;;;;;;68.03;48.22;;;;;;;;;;5096910;28;20028;-66
2022/03/17 05:56:55;;;;;;;58.08;40.05;;;;;;;;;;5097155;28;20424;-65
2022/03/17 05:59:21;;;;;;;58.85;41.38;;;;;;;;;;5096760;28;20016;-67
2022/03/17 06:01:47;;;;;;;58.08;38.88;;;;;;;;;;5096632;28;20106;-66
2022/03/17 06:04:13;;;;;;;63.00;39.55;;;;;;;;;;5096868;28;20020;-66
2022/03/17 06:06:39;;;;;;;68.53;40.58;;;;;;;;;;5096854;28;20130;-65
2022/03/17 06:09:05;;;;;;;57.35;39.67;;;;;;;;;;5096727;28;20047;-64
2022/03/17 06:11:31;;;;;;;81.22;49.92;;;307.70;2304.00;;;;;;5096811;28;20020;-66
2022/03/17 06:13:59;;;;;;;56.85;39.03;;;307.60;2304.00;;;;;;5096487;28;20482;-66
2022/03/17 06:16:25;;;;;;;59.67;40.13;;;307.70;2304.00;;;;;;5096695;28;20409;-66
2022/03/17 06:18:51;;;;;;;79.82;46.45;;;;;;;;;;5096165;28;20031;-65
2022/03/17 06:21:17;;;;;;;78.07;47.60;;;307.90;2304.00;;;;;;5096331;28;20386;-65
2022/03/17 06:23:45;;;;;;;83.60;51.67;;;307.70;2304.00;;;;;;5096217;28;20028;-65
2022/03/17 06:26:11;;;;;;;69.85;47.00;;;307.70;2304.00;;;;;;5096285;28;20363;-66
2022/03/17 06:28:37;;;;;;;78.82;50.33;;;307.60;2304.00;;;;;;5096072;28;20043;-68
2022/03/17 06:31:03;;;;;;;82.47;51.13;;;;;;;;;;5096646;28;20031;-65
2022/03/17 06:33:32;;;;;;;63.50;40.88;;;;;;;;;;5095920;28;20076;-67
2022/03/17 06:35:58;;;;;;;61.63;41.95;;;;;;;;;;5096096;28;20032;-65
2022/03/17 06:38:24;;;;;;;78.57;44.42;;;;;;;;;;5094520;28;20039;-67
2022/03/17 06:40:50;;;;;;;57.22;39.72;;;;;;;;;;5096053;28;20063;-65
2022/03/17 06:43:17;;;;;;;68.78;49.42;;;;;;;;;;5096265;28;20620;-64
2022/03/17 06:45:44;;;;;;;58.55;42.30;;;;;;;;;;5095845;28;20102;-65
2022/03/17 06:48:10;;;;;;;63.88;45.08;;;;;;;;;;5095513;28;20035;-65
2022/03/17 06:50:36;;;;;;;82.28;53.35;;;307.80;2304.00;;;;;;5095563;28;20103;-65
2022/03/17 06:53:02;;;;;;;85.35;58.08;;;;;;;;;;5095729;28;20111;-66
2022/03/17 06:55:28;;;;;;;97.70;54.20;;;;;;;;;;5095341;28;20030;-65
2022/03/17 06:57:54;;;;;;;81.22;52.38;;;308.10;2304.00;;;;;;5095604;28;20452;-66
2022/03/17 07:00:20;;;;;;;83.35;51.45;;;307.90;2304.00;;;;;;5095479;28;20056;-67
2022/03/17 07:02:47;;;;;;;101.00;62.22;;;308.00;2304.00;;;;;;5095424;28;20028;-65
2022/03/17 07:05:14;;;;;;;94.32;56.88;;;;;;;;;;5095352;28;20048;-64
2022/03/17 07:07:40;;;;;;;92.22;56.40;;;;;;;;;;5095829;28;20119;-66
2022/03/17 07:10:07;;;;;;;96.72;58.67;;;;;;;;;;5095566;28;20104;-65
2022/03/17 07:12:33;;;;;;;57.92;40.00;;;;;;;;;;5095263;28;20073;-71
2022/03/17 07:15:00;;;;;;;83.55;51.00;;;;;;;;;;5095326;28;20107;-65
2022/03/17 07:17:26;;;;;;;81.00;49.72;;;;;;;;;;5095197;28;20021;-66
2022/03/17 07:20:01;;;;;;;114.18;55.38;;;;;;;;;;5095285;28;20043;-67
2022/03/17 07:22:28;;;;;;;65.63;48.03;;;;;;;;;;5095163;28;20549;-66
2022/03/17 07:24:54;;;;;;;57.58;44.40;;;;;;;;;;5095102;28;20093;-64
2022/03/17 07:27:23;;;;;;;56.53;42.78;;;308.10;2304.00;;;;;;5095034;28;20039;-66
2022/03/17 07:29:50;;;;;;;52.28;41.00;;;;;;;;;;5095082;28;20028;-67
2022/03/17 07:32:16;;;;;;;56.72;41.65;;;332.80;2329.60;;;;;;5094890;28;20028;-67
2022/03/17 07:34:42;;;;;;;56.33;43.33;;;308.10;2304.00;;;;;;5095303;28;20089;-66
2022/03/17 07:37:08;;;;;;;67.07;47.47;;;332.80;2329.60;;;;;;5094517;28;20048;-67
2022/03/17 07:39:34;;;;;;;62.03;44.95;;;308.10;2304.00;;;;;;5095052;28;20024;-66
2022/03/17 07:42:00;;;;;;;63.95;46.15;;;;;;;;;;5094612;28;20020;-66
2022/03/17 07:44:28;;;;;;;81.22;58.72;;;332.80;2329.60;;;;;;5094743;28;20111;-65
2022/03/17 07:46:55;;;;;;;72.78;53.25;;;;;;;;;;5092566;28;20043;-65
2022/03/17 07:49:21;;;;;;;62.30;42.55;;;332.80;2329.60;;;;;;5093194;28;20043;-64
2022/03/17 07:51:46;;;;;;;62.72;42.97;;;332.80;2329.60;;;;;;5094780;28;20065;-65
2022/03/17 07:54:12;;;;;;;42.83;33.38;;;;;;;;;;5094736;28;20111;-65
2022/03/17 07:56:38;;;;;;;47.15;36.53;;;332.90;2329.60;;;;;;5094601;28;20016;-65
2022/03/17 07:59:04;;;;;;;46.42;34.92;;;332.90;2329.60;;;;;;5094335;28;20032;-66
2022/03/17 08:01:30;;;;;;;53.10;40.97;;;;;;;;;;5094312;28;20020;-65
2022/03/17 08:03:56;;;;;;;51.47;37.80;;;;;;;;;;5094279;28;20047;-66
2022/03/17 08:06:23;;;;;;;60.10;44.55;;;;;;;;;;5093383;28;20033;-65
2022/03/17 08:08:49;;;;;;;49.00;39.33;;;;;;;;;;5094161;28;20035;-66
2022/03/17 08:11:15;;;;;;;53.38;37.92;;;;;;;;;;5094221;28;20027;-64
2022/03/17 08:13:41;;;;;;;58.22;44.42;;;;;;;;;;5094069;28;20020;-67
2022/03/17 08:16:10;;;;;;;49.15;38.25;;;;;;;;;;5094227;28;20508;-66
2022/03/17 08:18:36;;;;;;;54.30;39.63;;;;;;;;;;5094382;28;20178;-67
2022/03/17 08:21:03;;;;;;;62.78;45.22;;;;;;;;;;5094005;28;20020;-65
2022/03/17 08:23:29;;;;;;;71.65;44.20;;;;;;;;;;5092706;28;20032;-65
2022/03/17 08:25:55;;;;;;;46.92;35.78;;;;;;;;;;5094109;28;20095;-65
2022/03/17 08:28:21;;;;;;;48.83;35.75;;;;;;;;;;5093827;28;20115;-66
2022/03/17 08:30:48;;;;;;;45.13;32.60;;;;;;;;;;5093861;28;20107;-65
2022/03/17 08:33:15;;;;;;;45.58;33.72;;;;;;;;;;5093607;28;20016;-66
2022/03/17 08:35:42;;;;;;;41.22;30.92;;;;;;;;;;5093773;28;20028;-64
2022/03/17 08:38:08;;;;;;;45.22;30.92;;;;;;;;;;5093364;28;20048;-65
2022/03/17 08:40:35;;;;;;;46.20;31.63;;;;;;;;;;5093787;28;20036;-64
2022/03/17 08:43:02;;;;;;;50.95;33.67;;;;;;;;;;5093559;28;20471;-66
2022/03/17 08:50:57;;;;;;;48.30;34.33;;;;;;;;;;5093273;28;20502;-65
2022/03/17 08:53:23;;;;;;;45.10;34.08;;;;;;;;;;5093369;28;20024;-63
2022/03/17 08:55:49;;;;;;;40.55;31.90;;;;;;;;;;5092206;28;20036;-64
2022/03/17 08:58:16;;;;;;;38.70;31.10;;;;;;;;;;5093220;28;20115;-63
2022/03/17 09:00:42;;;;;;;46.20;32.85;;;;;;;;;;5093328;28;20034;-64
2022/03/17 09:03:09;;;;;;;54.35;41.00;;;;;;;;;;5093321;28;20109;-63
2022/03/17 09:05:35;;;;;;;68.63;51.97;;;;;;;;;;5092960;28;20028;-63
2022/03/17 09:08:05;;;;;;;58.47;45.53;;;332.90;2329.60;;;;;;5093237;28;20035;-64
2022/03/17 09:10:33;;;;;;;40.80;33.42;;;332.90;2329.60;;;;;;5093637;28;20016;-65
2022/03/17 09:13:06;;;;;;;43.55;32.40;;;308.10;2304.00;;;;;;5092979;28;20023;-64
2022/03/17 09:15:32;;;;;;;42.50;32.25;;;308.10;2304.00;;;;;;5091815;28;20020;-65
2022/03/17 09:17:59;;;;;;;46.33;34.55;;;;;;;;;;5092791;28;20452;-65
2022/03/17 09:20:25;;;;;;;48.80;37.63;;;;;;;;;;5091661;28;20026;-65
2022/03/17 09:22:52;;;;;;;49.22;34.70;;;;;;;;;;5092864;28;20028;-66
2022/03/17 09:25:23;;;;;;;48.90;32.88;;;;;;;;;;5092968;28;20046;-64
2022/03/17 09:27:50;;;;;;;39.20;28.77;;;;;;;;;;5092957;28;20028;-64
2022/03/17 09:30:16;;;;;;;42.30;29.23;;;;;;;;;;5092851;28;20034;-65
2022/03/17 09:32:45;;;;;;;44.35;31.38;;;;;;;;;;5092807;28;20053;-64
2022/03/17 09:35:11;;;;;;;63.90;41.22;;;;;;;;;;5092672;28;20429;-64
2022/03/17 09:37:38;;;;;;;121.18;74.13;;;;;;;;;;5091245;28;20056;-65
2022/03/17 09:40:06;;;;;;;68.18;41.70;;;;;;;;;;5092625;28;20040;-65
2022/03/17 09:42:32;;;;;;;64.68;42.45;;;;;;;;;;5092606;28;20032;-64
2022/03/17 09:44:58;;;;;;;50.38;37.20;;;;;;;;;;5092910;28;20048;-64
2022/03/17 09:47:27;;;;;;;50.83;34.85;;;;;;;;;;5092736;28;20047;-64
2022/03/17 09:49:54;;;;;;;55.08;34.53;;;;;;;;;;5092690;28;20019;-64
2022/03/17 09:52:20;;;;;;;55.28;31.55;;;;;;;;;;5092712;28;20051;-64
2022/03/17 09:54:47;;;;;;;44.53;30.15;;;;;;;;;;5092858;28;20031;-64
2022/03/17 09:57:16;;;;;;;67.10;46.30;;;308.10;2304.00;;;;;;5092423;28;20489;-65
2022/03/17 09:59:43;;;;;;;58.85;38.95;;;;;;;;;;5093029;28;20028;-65
2022/03/17 10:02:13;;;;;;;47.50;32.78;;;332.90;2329.60;;;;;;5092665;28;20473;-64
2022/03/17 10:04:39;;;;;;;61.38;36.47;;;332.90;2329.60;;;;;;5092441;28;20479;-64
2022/03/17 10:07:07;;;;;;;42.83;32.97;;;333.10;2329.60;;;;;;5092790;28;20378;-65
2022/03/17 10:09:33;;;;;;;85.90;57.08;;;333.10;2329.60;;;;;;5092851;28;20036;-65
2022/03/17 10:12:03;;;;;;;46.90;34.97;;;333.00;2329.60;;;;;;5092343;28;20042;-65
2022/03/17 10:14:39;;;;;;;51.83;33.25;;;;;;;;;;5092704;28;20085;-65
2022/03/17 10:17:07;;;;;;;47.40;31.88;;;332.90;2329.60;;;;;;5092455;28;20051;-65
2022/03/17 10:19:34;;;;;;;42.78;30.17;;;333.00;2329.60;;;;;;5092753;28;20374;-66
2022/03/17 10:22:10;;;;;;;39.55;30.77;;;;;;;;;;5092379;28;20489;-65
2022/03/17 10:24:36;;;;;;;51.63;37.22;;;333.20;2329.60;;;;;;5073895;28;20040;-66
2022/03/17 10:27:06;;;;;;;48.15;36.13;;;333.30;2329.60;;;;;;5092323;28;20068;-66
2022/03/17 10:29:33;;;;;;;34.88;27.77;;;;;;;;;;5092566;28;20046;-65
2022/03/17 10:32:02;;;;;;;40.33;29.20;;;;;;;;;;5096330;28;20024;-66
2022/03/17 10:34:30;;;;;;;43.60;32.95;;;;;;;;;;5096161;28;20107;-65
2022/03/17 10:37:12;;;;;;;44.97;32.45;;;;;;;;;;5095745;28;20455;-65
2022/03/17 10:39:44;;;;;;;72.88;31.13;;;384.10;2048.00;;;;;;5096179;28;20036;-66
2022/03/17 10:42:20;;;;;;;33.53;26.75;;;;;;;;;;5096340;28;20024;-65
2022/03/17 10:44:50;;;;;;;32.38;26.08;;;;;;;;;;5096011;28;20028;-65
2022/03/17 10:47:48;;;;;;;38.65;26.40;;;;;;;;;;5095660;28;20497;-65
2022/03/17 10:50:20;;;;;;;32.22;25.77;;;;;;;;;;5033121;28;20144;-64
2022/03/17 10:52:52;;;;;;;31.70;25.60;;;;;;;;;;5033481;28;20029;-65
2022/03/17 10:55:32;;;;;;;45.17;33.13;;;487.30;1484.80;;;;;;5033221;28;20521;-65
2022/03/17 10:58:11;;;;;;;32.38;27.02;;;;;;;;;;5033065;28;20030;-65
2022/03/17 11:00:45;;;;;;;40.15;30.63;;;;;;;;;;5033308;28;20037;-65
2022/03/17 11:03:11;;;;;;;39.83;31.17;;;;;;;;;;5033022;28;20021;-67
2022/03/17 11:05:37;;;;;;;51.63;37.47;;;436.10;1587.20;;;;;;5032797;28;20033;-66
2022/03/17 11:08:06;;;;;;;43.63;31.48;;;;;;;;;;5033065;28;20050;-66
2022/03/17 11:10:32;;;;;;;39.03;28.88;;;410.10;1715.20;;;;;;5032782;28;20033;-65
2022/03/17 11:13:04;;;;;;;43.75;31.83;;;;;;;;;;5032976;28;20415;-65
2022/03/17 11:15:31;;;;;;;45.65;31.90;;;;;;;;;;5032910;28;20121;-64
2022/03/17 11:18:02;;;;;;;44.40;33.10;;;;;;;;;;5033016;28;20063;-66
2022/03/17 11:20:29;;;;;;;42.08;33.13;;;384.30;1817.60;;;;;;5032774;28;20033;-64
2022/03/17 11:23:19;;;;;;;60.53;33.35;;;384.30;1843.20;;;;;;5032747;28;20056;-64
2022/03/17 11:25:55;;;;;;;46.20;32.20;;;;;;;;;;5042837;28;20441;-64
2022/03/17 11:28:36;;;;;;;35.78;27.83;;;359.20;1868.80;;;;;;5093567;28;20131;-65
2022/03/17 11:31:08;;;;;;;34.25;27.02;;;359.10;1894.40;;;;;;5095058;28;20013;-65
2022/03/17 11:33:37;;;;;;;54.25;32.85;;;359.00;1920.00;;;;;;5095040;28;20036;-65
2022/03/17 11:36:09;;;;;;;50.42;31.65;;;;;;;;;;5094901;28;20818;-63
2022/03/17 11:41:27;;;;;;;55.20;36.25;;;;;;;;;;5094682;28;20497;-66
2022/03/17 11:43:53;;;;;;;57.80;36.67;;;;;;;;;;5094623;28;20020;-65
2022/03/17 11:46:21;;;;;;;63.95;38.53;;;;;;;;;;5094608;28;20467;-66
2022/03/17 11:48:50;;;;;;;79.72;46.63;;;;;;;;;;5094605;28;20047;-66
2022/03/17 11:51:16;;;;;;;68.72;43.67;;;;;;;;;;5093123;28;20016;-65
2022/03/17 11:53:45;;;;;;;44.20;32.78;;;;;;;;;;5094490;28;20020;-65
2022/03/17 11:56:15;;;;;;;47.85;32.53;;;;;;;;;;5094316;28;20020;-66
2022/03/17 11:58:47;;;;;;;44.05;31.67;;;;;;;;;;5092260;28;20585;-66
2022/03/17 12:01:13;;;;;;;39.00;28.88;;;;;;;;;;5094137;28;20026;-65
2022/03/17 12:03:42;;;;;;;56.47;36.83;;;;;;;;;;5094320;28;20068;-65
2022/03/17 12:06:16;;;;;;;56.80;34.28;;;;;;;;;;5094331;28;20031;-66
2022/03/17 12:08:51;;;;;;;83.60;37.35;;;;;;;;;;5094209;28;20043;-66
2022/03/17 12:11:22;;;;;;;55.10;33.13;;;333.60;2073.60;;;;;;5092910;28;20118;-65
2022/03/17 12:14:07;;;;;;;68.03;44.70;;;;;;;;;;5094166;28;20020;-66
2022/03/17 12:16:41;;;;;;;60.20;41.10;;;358.40;2073.60;;;;;;5094024;28;20024;-66
2022/03/17 12:19:07;;;;;;;60.38;38.47;;;333.70;2073.60;;;;;;5093977;28;20032;-66
2022/03/17 12:21:58;;;;;;;50.83;37.15;;;358.40;2073.60;;;;;;5092736;28;20020;-67
2022/03/17 12:24:53;;;;;;;47.75;32.45;;;358.40;2073.60;;;;;;5094265;28;20420;-65
2022/03/17 12:27:24;;;;;;;44.95;32.60;;;;;;;;;;5092356;28;20044;-67
2022/03/17 12:30:01;;;;;;;42.45;30.88;;;333.70;2073.60;;;;;;5094001;28;20028;-65
2022/03/17 12:32:34;;;;;;;46.10;32.22;;;333.70;2073.60;;;;;;5093709;28;20042;-65
2022/03/17 12:35:01;;;;;;;50.08;37.17;;;333.70;2073.60;;;;;;5093828;28;20024;-66
2022/03/17 12:37:29;;;;;;;60.88;41.60;;;358.50;2073.60;;;;;;5093273;28;20123;-66
2022/03/17 12:39:58;;;;;;;71.75;41.70;;;358.40;2099.20;;;;;;5093488;28;20036;-65
2022/03/17 12:42:27;;;;;;;61.45;41.17;;;333.70;2099.20;;;;;;5093749;28;20119;-66
2022/03/17 12:45:03;;;;;;;53.97;35.38;;;358.50;2073.60;;;;;;5093891;28;20020;-65
2022/03/17 12:47:30;;;;;;;57.60;35.85;;;358.50;2073.60;;;;;;5093327;28;20162;-65
2022/03/17 12:49:58;;;;;;;49.95;34.70;;;333.70;2073.60;;;;;;5093371;28;20027;-65
2022/03/17 12:52:32;;;;;;;62.90;36.22;;;333.70;2073.60;;;;;;5092656;28;20073;-66
2022/03/17 12:54:59;;;;;;;92.68;54.08;;;333.70;2048.00;;;;;;5093399;28;20021;-66
2022/03/17 12:57:27;;;;;;;69.43;43.75;;;358.50;2022.40;;;;;;5093440;28;20104;-64
2022/03/17 12:59:54;;;;;;;40.95;30.45;;;;;;;;;;5093073;28;20020;-66
2022/03/17 13:02:20;;;;;;;75.15;46.53;;;;;;;;;;5093168;28;20028;-64
2022/03/17 13:04:49;;;;;;;66.00;39.17;;;;;;;;;;5092999;28;20090;-65
2022/03/17 13:07:15;;;;;;;49.38;31.42;;;;;;;;;;5092963;28;20074;-65
2022/03/17 13:09:42;;;;;;;53.13;38.45;;;;;;;;;;5093051;28;20548;-65
2022/03/17 13:15:00;;;;;;;50.90;32.38;;;;;;;;;;5093067;28;20089;-65
2022/03/17 13:17:29;;;;;;;91.38;44.42;;;;;;;;;;5092931;28;20433;-65
2022/03/17 13:19:56;;;;;;;30.90;23.08;;;358.60;1920.00;;;;;;5093228;28;20164;-66
2022/03/17 13:22:28;;;;;;;37.97;24.45;;;358.70;1920.00;;;;;;5092779;28;20027;-65
2022/03/17 13:25:14;;;;;;;39.92;27.85;;;358.60;1945.60;;;;;;5093006;28;20059;-66
2022/03/17 13:27:53;;;;;;;41.92;29.27;;;358.60;1971.20;;;;;;5092895;28;20036;-65
2022/03/17 13:30:19;;;;;;;43.78;29.70;;;358.60;1945.60;;;;;;5092867;28;20058;-65
2022/03/17 13:32:57;;;;;;;157.18;80.15;;;358.60;1945.60;;;;;;5092778;28;20445;-65
2022/03/17 13:35:23;;;;;;;38.95;27.35;;;358.60;1920.00;;;;;;5092515;28;20027;-65
2022/03/17 13:37:50;;;;;;;46.55;30.70;;;;;;;;;;5092149;28;20055;-66
2022/03/17 13:40:18;;;;;;;39.53;27.23;;;358.80;1920.00;;;;;;5092875;28;20051;-66
2022/03/17 13:43:03;;;;;;;58.97;27.40;;;;;;;;;;5092969;28;20034;-66
2022/03/17 13:45:33;;;;;;;36.25;27.27;;;359.00;1894.40;;;;;;5092959;28;20024;-65
2022/03/17 13:48:07;;;;;;;47.00;27.63;;;359.00;1868.80;;;;;;5092867;28;20036;-65